Pagina principale
METAR-TAF:

METAR-TAF

Aeroporti :

Aeroporto Internazionale di Tuzla

Tuzla, Bosnia-Erzegovina

latitudine: 44-33N, longitudine: 018-42E, altezza: 306 m

Osservazione

Il bollettino è stato emesso 38 minuti fa, alle 13:00 UTC
Vento 2 kt da direzioni variabili
Temperature 29°C
Umidità 43%
Pressione 1016 hPa
Visibilità 10 km o più
Nubi sparse ad un'altezza di 4000 ft

METAR: LQTZ 171300Z VRB02KT 9999 SCT040 29/15 Q1016

Ora: 15:38 (13:38 UTC)

Previsione

Il bollettino è stato emesso 2 ore e 38 minuti fa, alle 11:00 UTC
Previsione valida dal 17 alle 12 UTC al 18 alle 12 UTC
Vento 2 kt da direzioni variabili
Visibilità 10 km o più
nessuna nube inferiore a 1500 m e nessun cumulonembo

TAF: LQTZ 171100Z 1712/1812 VRB02KT CAVOK TX29/1714Z TN15/1803Z

Osservazioni e previsioni meteorologiche di più di 4000 aeroporti (messaggi METAR e TAF).

Le stazioni disponibili sono rappresentate dai dischi gialli e rossi sulla carta.

Puntare il mouse per vedere il nome della stazione.

Clicca sopra per visualizzare le osservazioni e previsioni meteorologiche.

Per cambiare la mappa : fare clic sui pulsanti verdi con una croce nera per ingrandire, il pulsante verde con un trattino per diminuire, o sulla freccia verde per le mappe adiacenti.


METAR-TAF: